createdAt,value
2023-04-11T16:04:10.030Z,1004.79
2023-04-11T16:04:24.395Z,1004.80
2023-04-11T16:04:30.509Z,1004.84
2023-04-11T16:04:40.557Z,1004.89
2023-04-11T16:04:53.129Z,1004.74
2023-04-11T16:05:00.882Z,1004.83
2023-04-11T16:05:10.932Z,1004.80
2023-04-11T16:05:31.270Z,1004.84
2023-04-11T16:05:41.841Z,1004.74
2023-04-11T16:05:51.489Z,1004.81
2023-04-11T16:06:01.803Z,1004.84
2023-04-11T16:06:12.761Z,1004.88
2023-04-11T16:06:22.424Z,1004.83
2023-04-11T16:06:32.147Z,1004.82
2023-04-11T16:06:42.352Z,1004.54
2023-04-11T16:06:52.442Z,1004.83
2023-04-11T16:07:02.746Z,1004.88
2023-04-11T16:07:22.910Z,1004.84
2023-04-11T16:07:32.845Z,1004.73
2023-04-11T16:07:42.906Z,1004.67
2023-04-11T16:07:52.908Z,1004.68
2023-04-11T16:08:02.967Z,1004.83
2023-04-11T16:08:13.180Z,1004.86
2023-04-11T16:08:23.296Z,1004.79
2023-04-11T16:08:34.267Z,1004.74
2023-04-11T16:08:43.792Z,1004.84
2023-04-11T16:08:54.165Z,1004.82
2023-04-11T16:09:03.846Z,1004.99
2023-04-11T16:09:15.615Z,1004.93
2023-04-11T16:09:25.718Z,1005.13
2023-04-11T16:09:45.691Z,1005.17
2023-04-11T16:09:54.485Z,1005.26
2023-04-11T16:10:05.883Z,1005.29
2023-04-11T16:10:14.596Z,1005.41
2023-04-11T16:10:25.045Z,1005.42
2023-04-11T16:10:34.960Z,1005.42
2023-04-11T16:10:55.401Z,1005.53
2023-04-11T16:11:06.439Z,1005.48
2023-04-11T16:11:16.543Z,1005.49
2023-04-11T16:11:25.181Z,1005.57
2023-04-11T16:11:40.429Z,1005.72
2023-04-11T16:11:52.128Z,1005.63
2023-04-11T16:12:04.535Z,1005.64
2023-04-11T16:12:14.291Z,1005.81
2023-04-11T16:12:26.889Z,1005.85
2023-04-11T16:12:32.967Z,1005.94
2023-04-11T16:12:43.168Z,1005.97
2023-04-11T16:12:53.251Z,1005.97
2023-04-11T16:13:14.436Z,1005.97
2023-04-11T16:13:25.738Z,1006.12
2023-04-11T16:13:37.353Z,1006.14
2023-04-11T16:13:44.944Z,1006.05
2023-04-11T16:13:57.115Z,1006.02
2023-04-11T16:14:05.022Z,1006.08
2023-04-11T16:14:26.526Z,1006.14
2023-04-11T16:14:34.738Z,1006.21
2023-04-11T16:14:44.912Z,1006.24
2023-04-11T16:14:55.220Z,1006.29
2023-04-11T16:15:07.034Z,1006.23
2023-04-11T16:15:18.199Z,1006.34
2023-04-11T16:15:36.057Z,1006.43
2023-04-11T16:15:47.721Z,1006.39
2023-04-11T16:15:55.523Z,1006.43
2023-04-11T16:16:05.984Z,1006.50
2023-04-11T16:16:16.334Z,1006.42
2023-04-11T16:16:25.957Z,1006.52
2023-04-11T16:16:36.098Z,1006.57
2023-04-11T16:17:00.128Z,1006.51
2023-04-11T16:17:06.314Z,1006.57
2023-04-11T16:17:16.409Z,1006.63
2023-04-11T16:17:26.412Z,1006.68
2023-04-11T16:17:40.550Z,1006.68
2023-04-11T16:17:47.338Z,1006.57
2023-04-11T16:18:00.601Z,1006.60
2023-04-11T16:18:07.101Z,1006.51
2023-04-11T16:18:20.559Z,1006.69
2023-04-11T16:18:31.511Z,1006.66
2023-04-11T16:18:47.708Z,1006.60
2023-04-11T16:18:58.892Z,1006.59
2023-04-11T16:19:07.939Z,1006.58
2023-04-11T16:19:18.677Z,1006.61
2023-04-11T16:19:28.860Z,1006.58
2023-04-11T16:19:38.256Z,1006.54
2023-04-11T16:19:48.366Z,1006.61
2023-04-11T16:20:02.384Z,1006.61
2023-04-11T16:20:10.410Z,1006.58
2023-04-11T16:20:18.734Z,1006.54
2023-04-11T16:20:28.883Z,1006.54
2023-04-11T16:20:39.034Z,1006.57
2023-04-11T16:20:49.993Z,1006.57
2023-04-11T16:21:09.465Z,1006.54
2023-04-11T16:21:19.712Z,1006.59
2023-04-11T16:21:30.475Z,1006.58
2023-04-11T16:21:40.970Z,1006.57
2023-04-11T16:21:49.853Z,1006.54
2023-04-11T16:22:04.718Z,1006.53
2023-04-11T16:22:10.809Z,1006.50
2023-04-11T16:22:25.774Z,1006.56
2023-04-11T16:22:31.714Z,1006.57
2023-04-11T16:22:41.903Z,1006.61
2023-04-11T16:22:53.551Z,1006.57
2023-04-11T16:23:05.620Z,1006.49
2023-04-11T16:23:12.310Z,1006.51
2023-04-11T16:23:32.499Z,1006.50
2023-04-11T16:23:43.445Z,1006.59
2023-04-11T16:23:54.294Z,1006.70
2023-04-11T16:24:11.608Z,1006.65
2023-04-11T16:24:17.489Z,1006.68
2023-04-11T16:24:31.536Z,1006.64
2023-04-11T16:24:45.044Z,1006.75
2023-04-11T16:24:51.128Z,1006.71
2023-04-11T16:25:02.976Z,1006.70
2023-04-11T16:25:12.514Z,1006.68
2023-04-11T16:25:22.398Z,1006.78
2023-04-11T16:25:32.488Z,1006.85
2023-04-11T16:25:51.975Z,1006.88
2023-04-11T16:26:07.599Z,1007.00
2023-04-11T16:26:13.800Z,1006.98
2023-04-11T16:26:23.982Z,1007.01
2023-04-11T16:26:38.233Z,1006.94
2023-04-11T16:26:44.153Z,1006.92
2023-04-11T16:26:56.908Z,1006.85
2023-04-11T16:27:08.226Z,1006.87
2023-04-11T16:27:14.875Z,1006.85
2023-04-11T16:27:24.796Z,1006.75
2023-04-11T16:27:45.132Z,1006.87
2023-04-11T16:27:54.990Z,1006.90
2023-04-11T16:28:05.203Z,1006.94
2023-04-11T16:28:16.156Z,1006.94
2023-04-11T16:28:25.437Z,1006.88
2023-04-11T16:28:35.565Z,1006.88
2023-04-11T16:28:45.826Z,1006.75
2023-04-11T16:28:55.965Z,1006.83
2023-04-11T16:29:06.435Z,1006.87
2023-04-11T16:29:25.263Z,1006.87
2023-04-11T16:29:36.234Z,1006.92
2023-04-11T16:29:46.409Z,1006.92
2023-04-11T16:29:56.639Z,1006.94
2023-04-11T16:30:06.614Z,1006.83
2023-04-11T16:30:17.165Z,1006.86
2023-04-11T16:30:27.685Z,1006.86
2023-04-11T16:30:37.000Z,1006.89
2023-04-11T16:30:47.104Z,1006.89
2023-04-11T16:30:58.264Z,1006.93
2023-04-11T16:31:07.265Z,1006.95
2023-04-11T16:31:17.702Z,1006.98
2023-04-11T16:31:36.728Z,1006.98
2023-04-11T16:31:47.862Z,1006.85
2023-04-11T16:31:58.066Z,1006.71
2023-04-11T16:32:08.285Z,1006.80
2023-04-11T16:32:18.079Z,1006.84
2023-04-11T16:32:28.267Z,1006.76
2023-04-11T16:32:38.438Z,1006.70
2023-04-11T16:32:48.547Z,1006.75
2023-04-11T16:32:59.980Z,1006.55
2023-04-11T16:33:08.850Z,1006.82
2023-04-11T16:33:18.934Z,1006.98
2023-04-11T16:33:30.110Z,1006.99
2023-04-11T16:33:39.168Z,1006.92
2023-04-11T16:33:49.363Z,1007.00
2023-04-11T16:34:00.001Z,1006.88
2023-04-11T16:34:09.498Z,1006.75
2023-04-11T16:34:19.611Z,1006.76
2023-04-11T16:34:39.919Z,1006.73
2023-04-11T16:34:50.012Z,1006.69
2023-04-11T16:35:00.267Z,1006.59
2023-04-11T16:35:10.455Z,1006.59
2023-04-11T16:35:20.626Z,1006.55
2023-04-11T16:35:31.731Z,1006.50
2023-04-11T16:35:40.920Z,1006.55
2023-04-11T16:35:50.823Z,1006.55
2023-04-11T16:36:01.171Z,1006.60
2023-04-11T16:36:11.261Z,1006.50
2023-04-11T16:36:22.242Z,1006.56
2023-04-11T16:36:32.309Z,1006.57
2023-04-11T16:36:41.770Z,1006.49
2023-04-11T16:36:51.819Z,1006.51
2023-04-11T16:37:01.763Z,1006.50
2023-04-11T16:37:12.812Z,1006.50
2023-04-11T16:37:22.025Z,1006.43
2023-04-11T16:37:42.314Z,1006.43
2023-04-11T16:37:52.337Z,1006.37
2023-04-11T16:38:03.124Z,1006.35
2023-04-11T16:38:12.779Z,1006.27
2023-04-11T16:38:22.807Z,1006.29
2023-04-11T16:38:33.044Z,1006.25
2023-04-11T16:38:43.086Z,1006.20
2023-04-11T16:38:53.217Z,1006.28
2023-04-11T16:39:03.454Z,1006.20
2023-04-11T16:39:13.542Z,1006.24
2023-04-11T16:39:23.701Z,1006.20
2023-04-11T16:39:33.756Z,1006.26
2023-04-11T16:39:43.980Z,1006.27
2023-04-11T16:39:54.095Z,1006.22
2023-04-11T16:40:04.168Z,1006.42
2023-04-11T16:40:14.325Z,1006.22
2023-04-11T16:40:24.483Z,1006.09
2023-04-11T16:40:34.649Z,1006.14
2023-04-11T16:40:44.794Z,1006.23
2023-04-11T16:40:54.932Z,1006.17
2023-04-11T16:41:05.142Z,1006.17
2023-04-11T16:41:15.349Z,1006.25
2023-04-11T16:41:25.189Z,1006.13
2023-04-11T16:41:35.398Z,1006.09
2023-04-11T16:41:45.721Z,1006.19
2023-04-11T16:41:56.288Z,1006.14
2023-04-11T16:42:05.702Z,1006.15
2023-04-11T16:42:16.069Z,1006.11
2023-04-11T16:42:26.039Z,1006.13
2023-04-11T16:42:36.173Z,1006.15
2023-04-11T16:42:46.295Z,1006.16
2023-04-11T16:42:56.415Z,1006.20
2023-04-11T16:43:06.459Z,1006.14
2023-04-11T16:43:16.664Z,1006.23
2023-04-11T16:43:26.735Z,1006.25
2023-04-11T16:43:36.970Z,1006.24
2023-04-11T16:43:47.824Z,1006.17
2023-04-11T16:43:57.400Z,1006.24
2023-04-11T16:44:07.222Z,1006.18
2023-04-11T16:44:18.168Z,1006.30
2023-04-11T16:44:27.687Z,1006.30
2023-04-11T16:44:37.617Z,1006.30
2023-04-11T16:44:48.653Z,1006.18
2023-04-11T16:44:57.922Z,1006.21
2023-04-11T16:45:08.048Z,1006.32
2023-04-11T16:45:18.137Z,1006.18
2023-04-11T16:45:29.059Z,1006.20
2023-04-11T16:45:38.631Z,1006.14
2023-04-11T16:45:58.933Z,1006.02
2023-04-11T16:46:08.906Z,1005.98
2023-04-11T16:46:19.017Z,1005.96
2023-04-11T16:46:29.376Z,1006.05
2023-04-11T16:46:40.248Z,1006.08
2023-04-11T16:46:49.334Z,1006.10
2023-04-11T16:46:59.506Z,1006.04
2023-04-11T16:47:09.505Z,1006.01
2023-04-11T16:47:19.694Z,1005.88
2023-04-11T16:47:31.321Z,1005.86
2023-04-11T16:47:50.167Z,1005.77
2023-04-11T16:48:00.220Z,1005.65
2023-04-11T16:48:10.400Z,1005.83
2023-04-11T16:48:20.400Z,1005.83
2023-04-11T16:48:30.609Z,1005.77
2023-04-11T16:48:40.725Z,1005.78
2023-04-11T16:48:50.918Z,1005.79
2023-04-11T16:49:01.011Z,1005.83
2023-04-11T16:49:11.048Z,1005.76
2023-04-11T16:49:21.221Z,1005.62
2023-04-11T16:49:31.344Z,1005.59
2023-04-11T16:49:41.406Z,1005.61
2023-04-11T16:49:51.557Z,1005.45
2023-04-11T16:50:01.759Z,1005.40
2023-04-11T16:50:11.854Z,1005.38
2023-04-11T16:50:21.903Z,1005.29
2023-04-11T16:50:32.134Z,1005.32
2023-04-11T16:50:43.218Z,1005.22
2023-04-11T16:50:52.324Z,1005.19
2023-04-11T16:51:02.934Z,1005.12
2023-04-11T16:51:12.472Z,1005.02
2023-04-11T16:51:22.651Z,1004.99
2023-04-11T16:51:32.904Z,1004.88
2023-04-11T16:51:54.341Z,1004.72
2023-04-11T16:52:03.151Z,1004.84
2023-04-11T16:52:13.482Z,1004.81
2023-04-11T16:52:23.595Z,1004.78
2023-04-11T16:52:33.734Z,1004.76
2023-04-11T16:52:43.790Z,1004.64
2023-04-11T16:53:03.980Z,1004.41
2023-04-11T16:53:14.170Z,1004.31
2023-04-11T16:53:24.232Z,1004.19
2023-04-11T16:53:34.417Z,1004.08
2023-04-11T16:53:44.503Z,1004.09
2023-04-11T16:53:54.858Z,1004.08
2023-04-11T16:54:05.591Z,1004.10
2023-04-11T16:54:14.996Z,1003.98
2023-04-11T16:54:25.084Z,1003.87
2023-04-11T16:54:35.295Z,1003.81
2023-04-11T16:54:45.353Z,1003.68
2023-04-11T16:54:55.565Z,1003.57
2023-04-11T16:55:05.741Z,1003.44
2023-04-11T16:55:15.894Z,1003.33
2023-04-11T16:55:25.823Z,1003.24
2023-04-11T16:55:36.094Z,1003.02
2023-04-11T16:55:46.060Z,1002.91
2023-04-11T16:55:56.192Z,1003.01
2023-04-11T16:56:08.585Z,1003.07
2023-04-11T16:56:16.570Z,1002.95
2023-04-11T16:56:27.765Z,1002.89
2023-04-11T16:56:36.777Z,1002.89
2023-04-11T16:56:46.940Z,1002.91
2023-04-11T16:56:56.926Z,1003.05
2023-04-11T16:57:17.322Z,1003.33
2023-04-11T16:57:27.416Z,1003.37
2023-04-11T16:57:37.476Z,1003.51
2023-04-11T16:57:47.642Z,1003.66
2023-04-11T16:57:57.993Z,1003.89
2023-04-11T16:58:08.760Z,1003.99
2023-04-11T16:58:18.186Z,1004.04
2023-04-11T16:58:28.438Z,1004.11
2023-04-11T16:58:38.359Z,1004.25
2023-04-11T16:58:48.411Z,1004.39
2023-04-11T16:59:01.440Z,1004.36
2023-04-11T16:59:11.483Z,1004.40
2023-04-11T16:59:19.644Z,1004.45
